createdAt,value
2018-06-11T00:00:09.644Z,0.00
2018-06-11T00:01:09.619Z,0.00
2018-06-11T00:02:09.595Z,0.00
2018-06-11T00:03:09.572Z,0.00
2018-06-11T00:04:09.550Z,0.00
2018-06-11T00:05:09.527Z,0.00
2018-06-11T00:06:09.504Z,0.00
2018-06-11T00:07:09.477Z,0.00
2018-06-11T00:08:09.457Z,0.00
2018-06-11T00:09:09.429Z,0.00
2018-06-11T00:10:09.405Z,0.00
2018-06-11T00:11:09.383Z,0.00
2018-06-11T00:12:09.358Z,0.00
2018-06-11T00:13:09.333Z,0.00
2018-06-11T00:14:09.311Z,0.00
2018-06-11T00:15:09.289Z,0.00
2018-06-11T00:16:09.266Z,0.00
2018-06-11T00:17:09.240Z,0.00
2018-06-11T00:18:09.215Z,0.00
2018-06-11T00:19:09.196Z,0.00
2018-06-11T00:20:09.169Z,0.00
2018-06-11T00:21:09.145Z,0.00
2018-06-11T00:22:09.128Z,0.00
2018-06-11T00:23:09.099Z,0.00
2018-06-11T00:24:09.074Z,0.00
2018-06-11T00:25:09.050Z,0.00
2018-06-11T00:26:09.029Z,0.00
2018-06-11T00:27:09.002Z,0.00
2018-06-11T00:28:08.981Z,0.00
2018-06-11T00:29:08.956Z,0.00
2018-06-11T00:30:08.933Z,0.00
2018-06-11T00:31:08.909Z,0.00
2018-06-11T00:32:08.883Z,0.00
2018-06-11T00:33:08.858Z,0.00
2018-06-11T00:34:08.835Z,0.00
2018-06-11T00:35:08.811Z,0.00
2018-06-11T00:36:08.787Z,0.00
2018-06-11T00:37:08.763Z,0.00
2018-06-11T00:38:08.738Z,0.00
2018-06-11T00:39:08.715Z,0.00
2018-06-11T00:40:08.695Z,0.00
2018-06-11T00:41:08.666Z,0.00
2018-06-11T00:42:08.645Z,0.00
2018-06-11T00:43:08.623Z,0.00
2018-06-11T00:44:08.595Z,0.00
2018-06-11T00:45:08.570Z,0.00
2018-06-11T00:46:08.546Z,0.00
2018-06-11T00:47:08.528Z,0.00
2018-06-11T00:48:08.500Z,0.00
2018-06-11T00:49:08.472Z,0.00
2018-06-11T00:50:09.254Z,0.00
2018-06-11T00:51:08.430Z,0.00
2018-06-11T00:52:08.404Z,0.00
2018-06-11T00:53:08.376Z,0.00
2018-06-11T00:54:08.353Z,0.00
2018-06-11T00:55:08.328Z,0.00
2018-06-11T00:56:08.305Z,0.00
2018-06-11T00:57:08.280Z,0.00
2018-06-11T00:58:08.256Z,0.00
2018-06-11T00:59:08.231Z,0.00
2018-06-11T01:00:08.210Z,0.00
2018-06-11T01:01:08.182Z,0.00
2018-06-11T01:02:08.171Z,0.00
2018-06-11T01:03:08.134Z,0.00
2018-06-11T01:04:08.110Z,0.00
2018-06-11T01:05:08.086Z,0.00
2018-06-11T01:06:08.061Z,0.00
2018-06-11T01:07:08.038Z,0.00
2018-06-11T01:08:08.013Z,0.00
2018-06-11T01:09:07.988Z,0.00
2018-06-11T01:10:07.963Z,0.00
2018-06-11T01:11:07.942Z,0.00
2018-06-11T01:12:07.914Z,0.00
2018-06-11T01:13:07.889Z,0.00
2018-06-11T01:14:08.067Z,0.00
2018-06-11T01:15:07.841Z,0.00
2018-06-11T01:16:07.818Z,0.00
2018-06-11T01:17:07.793Z,0.00
2018-06-11T01:18:07.968Z,0.00
2018-06-11T01:19:07.747Z,0.00
2018-06-11T01:20:07.719Z,0.00
2018-06-11T01:21:07.693Z,0.00
2018-06-11T01:22:07.673Z,0.00
2018-06-11T01:23:07.645Z,0.00
2018-06-11T01:24:07.837Z,0.00
2018-06-11T01:25:07.594Z,0.00
2018-06-11T01:26:07.587Z,0.00
2018-06-11T01:27:07.546Z,0.00
2018-06-11T01:28:07.523Z,0.00
2018-06-11T01:29:07.498Z,0.00
2018-06-11T01:30:07.674Z,0.00
2018-06-11T01:31:07.448Z,0.00
2018-06-11T01:32:07.430Z,0.00
2018-06-11T01:33:07.398Z,0.00
2018-06-11T01:34:07.576Z,0.00
2018-06-11T01:35:07.349Z,0.00
2018-06-11T01:36:07.529Z,0.00
2018-06-11T01:37:07.304Z,0.00
2018-06-11T01:38:07.274Z,0.00
2018-06-11T01:39:07.252Z,0.00
2018-06-11T01:40:07.228Z,0.00
2018-06-11T01:41:07.199Z,0.00
2018-06-11T01:42:07.179Z,0.00
2018-06-11T01:43:07.152Z,0.00
2018-06-11T01:44:07.128Z,0.00
2018-06-11T01:45:07.111Z,0.00
2018-06-11T01:46:07.078Z,0.00
2018-06-11T01:47:07.055Z,0.00
2018-06-11T01:48:07.029Z,0.00
2018-06-11T01:49:07.003Z,0.00
2018-06-11T01:50:06.978Z,0.00
2018-06-11T01:51:06.954Z,0.00
2018-06-11T01:52:06.934Z,0.00
2018-06-11T01:53:06.913Z,0.00
2018-06-11T01:54:06.883Z,0.00
2018-06-11T01:55:06.857Z,0.00
2018-06-11T01:56:06.834Z,0.00
2018-06-11T01:57:06.808Z,0.00
2018-06-11T01:58:06.782Z,0.00
2018-06-11T01:59:06.759Z,0.00
2018-06-11T02:00:06.732Z,0.00
2018-06-11T02:01:06.708Z,0.00
2018-06-11T02:02:06.680Z,0.00
2018-06-11T02:03:06.656Z,0.00
2018-06-11T02:04:06.835Z,0.00
2018-06-11T02:05:06.606Z,0.00
2018-06-11T02:06:06.582Z,0.00
2018-06-11T02:07:06.556Z,0.00
2018-06-11T02:08:06.533Z,0.00
2018-06-11T02:09:06.507Z,0.00
2018-06-11T02:10:06.481Z,0.00
2018-06-11T02:11:06.458Z,0.00
2018-06-11T02:12:06.432Z,0.00
2018-06-11T02:13:06.406Z,0.00
2018-06-11T02:14:06.383Z,0.00
2018-06-11T02:15:06.364Z,0.00
2018-06-11T02:16:06.335Z,0.00
2018-06-11T02:17:06.310Z,0.00
2018-06-11T02:18:06.335Z,0.00
2018-06-11T02:19:06.261Z,0.00
2018-06-11T02:20:06.239Z,0.00
2018-06-11T02:21:06.210Z,0.00
2018-06-11T02:22:06.187Z,0.00
2018-06-11T02:23:06.163Z,0.00
2018-06-11T02:24:06.140Z,0.00
2018-06-11T02:25:06.118Z,0.00
2018-06-11T02:26:06.094Z,0.00
2018-06-11T02:27:06.070Z,0.00
2018-06-11T02:28:06.041Z,0.00
2018-06-11T02:29:06.046Z,0.00
2018-06-11T02:30:05.992Z,0.00
2018-06-11T02:31:05.967Z,0.00
2018-06-11T02:32:05.949Z,0.00
2018-06-11T02:33:05.920Z,0.00
2018-06-11T02:34:05.895Z,0.00
2018-06-11T02:35:05.869Z,0.00
2018-06-11T02:36:05.846Z,0.00
2018-06-11T02:37:05.825Z,0.00
2018-06-11T02:38:05.797Z,0.00
2018-06-11T02:39:05.772Z,0.00
2018-06-11T02:40:05.752Z,0.00
2018-06-11T02:41:05.723Z,0.00
2018-06-11T02:42:05.700Z,5.63
2018-06-11T02:43:05.678Z,5.63
2018-06-11T02:44:05.651Z,5.63
2018-06-11T02:45:05.633Z,5.63
2018-06-11T02:46:05.603Z,5.63
2018-06-11T02:47:05.578Z,5.63
2018-06-11T02:48:05.560Z,5.63
2018-06-11T02:49:05.529Z,5.63
2018-06-11T02:50:05.505Z,5.63
2018-06-11T02:51:05.481Z,5.63
2018-06-11T02:52:05.458Z,5.63
2018-06-11T02:53:05.433Z,11.25
2018-06-11T02:54:05.412Z,11.25
2018-06-11T02:55:05.392Z,11.25
2018-06-11T02:56:05.360Z,11.25
2018-06-11T02:57:05.336Z,11.25
2018-06-11T02:58:05.311Z,11.25
2018-06-11T02:59:05.295Z,11.25
2018-06-11T03:00:05.263Z,11.25
2018-06-11T03:01:05.240Z,11.25
2018-06-11T03:02:05.216Z,11.25
2018-06-11T03:03:05.191Z,11.25
2018-06-11T03:04:05.174Z,11.25
2018-06-11T03:05:05.141Z,11.25
2018-06-11T03:06:05.119Z,11.25
2018-06-11T03:07:05.097Z,11.25
2018-06-11T03:08:05.074Z,16.88
2018-06-11T03:09:05.046Z,16.88
2018-06-11T03:10:05.021Z,16.88
2018-06-11T03:11:04.999Z,16.88
2018-06-11T03:12:04.979Z,16.88
2018-06-11T03:13:04.948Z,22.50
2018-06-11T03:14:04.925Z,22.50
2018-06-11T03:15:04.905Z,22.50
2018-06-11T03:16:04.878Z,22.50
2018-06-11T03:17:04.866Z,22.50
2018-06-11T03:18:04.831Z,28.13
2018-06-11T03:19:04.805Z,28.13
2018-06-11T03:20:04.781Z,28.13
2018-06-11T03:21:04.761Z,28.13
2018-06-11T03:22:04.739Z,33.75
2018-06-11T03:23:04.708Z,33.75
2018-06-11T03:24:04.686Z,33.75
2018-06-11T03:25:04.660Z,33.75
2018-06-11T03:26:04.635Z,39.38
2018-06-11T03:27:04.612Z,39.38
2018-06-11T03:28:04.589Z,39.38
2018-06-11T03:29:04.562Z,45.00
2018-06-11T03:30:04.546Z,45.00
2018-06-11T03:31:04.520Z,45.00
2018-06-11T03:32:04.490Z,45.00
2018-06-11T03:33:04.469Z,50.63
2018-06-11T03:34:04.442Z,50.63
2018-06-11T03:35:04.418Z,50.63
2018-06-11T03:36:04.394Z,56.25
2018-06-11T03:37:04.370Z,56.25
2018-06-11T03:38:04.346Z,56.25
2018-06-11T03:39:04.321Z,56.25
2018-06-11T03:40:04.301Z,56.25
2018-06-11T03:41:04.287Z,56.25
2018-06-11T03:42:04.253Z,61.88
2018-06-11T03:43:04.223Z,61.88
2018-06-11T03:44:04.204Z,61.88
2018-06-11T03:45:04.175Z,61.88
2018-06-11T03:46:04.151Z,67.50
2018-06-11T03:47:04.127Z,67.50
2018-06-11T03:48:04.104Z,67.50
2018-06-11T03:49:04.080Z,67.50
2018-06-11T03:50:04.057Z,67.50
2018-06-11T03:51:04.030Z,61.88
2018-06-11T03:52:04.007Z,61.88
2018-06-11T03:53:04.005Z,61.88
2018-06-11T03:54:03.963Z,67.50
2018-06-11T03:55:03.934Z,67.50
2018-06-11T03:56:03.909Z,67.50
2018-06-11T03:57:03.887Z,61.88
2018-06-11T03:58:03.860Z,61.88
2018-06-11T03:59:03.836Z,61.88
2018-06-11T04:00:03.813Z,67.50
2018-06-11T04:01:03.793Z,67.50
2018-06-11T04:02:03.769Z,67.50
2018-06-11T04:03:03.742Z,67.50
2018-06-11T04:04:03.718Z,67.50
2018-06-11T04:05:03.691Z,61.88
2018-06-11T04:06:03.669Z,61.88
2018-06-11T04:07:03.642Z,56.25
2018-06-11T04:08:03.619Z,56.25
2018-06-11T04:09:03.596Z,56.25
2018-06-11T04:10:03.569Z,61.88
2018-06-11T04:11:03.624Z,67.50
2018-06-11T04:12:03.523Z,78.75
2018-06-11T04:13:03.497Z,90.00
2018-06-11T04:14:03.476Z,106.88
2018-06-11T04:15:03.450Z,101.25
2018-06-11T04:16:03.429Z,101.25
2018-06-11T04:17:03.402Z,95.63
2018-06-11T04:18:03.376Z,95.63
2018-06-11T04:19:03.356Z,95.63
2018-06-11T04:20:03.328Z,106.88
2018-06-11T04:21:03.305Z,112.50
2018-06-11T04:22:03.282Z,118.13
2018-06-11T04:23:03.256Z,135.00
2018-06-11T04:24:03.232Z,140.63
2018-06-11T04:25:03.209Z,146.25
2018-06-11T04:26:03.184Z,168.75
2018-06-11T04:27:03.159Z,191.25
2018-06-11T04:28:03.134Z,213.75
2018-06-11T04:29:03.110Z,225.00
2018-06-11T04:30:03.095Z,241.88
2018-06-11T04:31:03.063Z,253.13
2018-06-11T04:32:03.039Z,281.25
2018-06-11T04:33:03.015Z,292.50
2018-06-11T04:34:02.990Z,298.13
2018-06-11T04:35:02.966Z,303.75
2018-06-11T04:36:02.943Z,309.38
2018-06-11T04:37:02.921Z,298.13
2018-06-11T04:38:02.902Z,286.88
2018-06-11T04:39:02.873Z,270.00
2018-06-11T04:40:02.848Z,236.25
2018-06-11T04:41:02.822Z,219.38
2018-06-11T04:42:02.800Z,236.25
2018-06-11T04:43:02.781Z,270.00
2018-06-11T04:44:02.753Z,303.75
2018-06-11T04:45:02.733Z,309.38
2018-06-11T04:46:02.711Z,309.38
2018-06-11T04:47:02.687Z,309.38
2018-06-11T04:48:02.659Z,303.75
2018-06-11T04:49:02.633Z,309.38
2018-06-11T04:50:02.614Z,315.00
2018-06-11T04:51:02.587Z,320.63
2018-06-11T04:52:02.564Z,337.50
2018-06-11T04:53:02.541Z,348.75
2018-06-11T04:54:02.518Z,365.63
2018-06-11T04:55:02.546Z,388.13
2018-06-11T04:56:02.470Z,416.25
2018-06-11T04:57:02.450Z,444.38
2018-06-11T04:58:02.425Z,472.50
2018-06-11T04:59:02.398Z,500.63
2018-06-11T05:00:02.379Z,500.63
2018-06-11T05:01:02.353Z,489.38
2018-06-11T05:02:02.331Z,483.75
2018-06-11T05:03:02.315Z,455.63
2018-06-11T05:04:02.285Z,427.50
2018-06-11T05:05:02.258Z,405.00
2018-06-11T05:06:02.239Z,399.38
2018-06-11T05:07:02.217Z,399.38
2018-06-11T05:08:02.252Z,393.75
2018-06-11T05:09:02.167Z,388.13
2018-06-11T05:10:02.146Z,405.00
2018-06-11T05:11:02.122Z,416.25
2018-06-11T05:12:02.097Z,410.63
2018-06-11T05:13:02.075Z,416.25
2018-06-11T05:14:02.051Z,421.88
2018-06-11T05:15:02.028Z,427.50
2018-06-11T05:16:02.005Z,450.00
2018-06-11T05:17:01.985Z,478.13
2018-06-11T05:18:01.958Z,500.63
2018-06-11T05:19:01.936Z,511.88
2018-06-11T05:20:01.921Z,511.88
2018-06-11T05:21:01.890Z,540.00
2018-06-11T05:22:01.868Z,545.63
2018-06-11T05:23:01.843Z,540.00
2018-06-11T05:24:01.822Z,551.25
2018-06-11T05:25:01.796Z,534.38
2018-06-11T05:26:01.773Z,551.25
2018-06-11T05:27:01.750Z,573.75
2018-06-11T05:28:01.727Z,590.63
2018-06-11T05:29:01.715Z,601.88
2018-06-11T05:30:01.681Z,607.50
2018-06-11T05:31:01.657Z,635.63
2018-06-11T05:32:01.635Z,652.50
2018-06-11T05:33:01.611Z,646.88
2018-06-11T05:34:01.589Z,641.25
2018-06-11T05:35:01.566Z,675.00
2018-06-11T05:36:01.572Z,680.63
2018-06-11T05:37:01.520Z,708.75
2018-06-11T05:38:01.513Z,753.75
2018-06-11T05:39:01.480Z,1147.50
2018-06-11T05:40:01.455Z,832.50
2018-06-11T05:41:01.428Z,911.25
2018-06-11T05:42:01.406Z,832.50
2018-06-11T05:43:01.384Z,821.25
2018-06-11T05:44:01.361Z,832.50
2018-06-11T05:45:01.341Z,843.75
2018-06-11T05:46:01.322Z,838.13
2018-06-11T05:47:01.296Z,843.75
2018-06-11T05:48:01.338Z,866.25
2018-06-11T05:49:01.250Z,956.25
2018-06-11T05:50:01.231Z,888.75
2018-06-11T05:51:01.204Z,798.75
2018-06-11T05:52:01.186Z,748.13
2018-06-11T05:53:01.159Z,742.50
2018-06-11T05:54:01.340Z,787.50
2018-06-11T05:55:01.115Z,838.13
2018-06-11T05:56:01.093Z,866.25
2018-06-11T05:57:01.073Z,866.25
2018-06-11T05:58:01.048Z,877.50
2018-06-11T05:59:01.027Z,871.88
2018-06-11T06:00:01.009Z,826.88
2018-06-11T06:01:00.982Z,793.13
2018-06-11T06:02:00.961Z,793.13
2018-06-11T06:03:00.943Z,821.25
2018-06-11T06:04:00.921Z,838.13
2018-06-11T06:05:00.900Z,843.75
2018-06-11T06:06:00.872Z,826.88
2018-06-11T06:07:00.849Z,804.38
2018-06-11T06:08:00.832Z,770.63
2018-06-11T06:09:01.010Z,759.38
2018-06-11T06:10:00.787Z,753.75
2018-06-11T06:11:00.764Z,753.75
2018-06-11T06:12:00.743Z,759.38
2018-06-11T06:13:00.718Z,742.50
2018-06-11T06:14:01.197Z,720.00
2018-06-11T06:15:00.674Z,708.75
2018-06-11T06:16:00.652Z,714.38
2018-06-11T06:17:00.636Z,736.88
2018-06-11T06:18:00.608Z,736.88
2018-06-11T06:19:00.592Z,714.38
2018-06-11T06:20:00.567Z,708.75
2018-06-11T06:21:00.545Z,731.25
2018-06-11T06:22:00.520Z,759.38
2018-06-11T06:23:00.500Z,776.25
2018-06-11T06:24:00.477Z,793.13
2018-06-11T06:25:00.454Z,798.75
2018-06-11T06:26:00.436Z,793.13
2018-06-11T06:27:00.415Z,810.00
2018-06-11T06:28:00.397Z,849.38
2018-06-11T06:29:00.365Z,883.13
2018-06-11T06:30:00.347Z,871.88
2018-06-11T06:31:00.325Z,860.63
2018-06-11T06:32:00.301Z,843.75
2018-06-11T06:33:00.281Z,843.75
2018-06-11T06:34:00.257Z,860.63
2018-06-11T06:35:00.238Z,894.38
2018-06-11T06:36:00.214Z,928.13
2018-06-11T06:37:00.192Z,973.13
2018-06-11T06:38:00.172Z,1085.63
2018-06-11T06:39:00.153Z,1220.63
2018-06-11T06:40:00.137Z,1333.13
2018-06-11T06:41:00.309Z,1338.75
2018-06-11T06:42:00.285Z,1473.75
2018-06-11T06:43:42.429Z,1485.00
2018-06-11T06:44:42.600Z,2593.13
2018-06-11T06:45:42.374Z,2193.75
2018-06-11T06:46:42.157Z,1186.88
2018-06-11T06:47:42.130Z,2913.75
2018-06-11T06:48:42.106Z,3031.88
2018-06-11T06:49:42.088Z,3076.88
2018-06-11T06:50:42.066Z,3138.75
2018-06-11T06:51:42.055Z,3088.13
2018-06-11T06:52:42.025Z,3020.63
2018-06-11T06:53:42.057Z,2739.38
2018-06-11T06:54:42.223Z,3285.00
2018-06-11T06:55:44.588Z,2036.25
2018-06-11T06:57:24.308Z,2930.63
2018-06-11T06:58:25.296Z,2351.25
2018-06-11T06:59:24.267Z,1777.50
2018-06-11T07:00:24.249Z,2188.13
2018-06-11T07:02:48.541Z,1884.38
2018-06-11T07:03:48.322Z,1805.63
2018-06-11T07:04:48.504Z,1828.13
2018-06-11T07:05:48.285Z,1912.50
2018-06-11T07:06:48.267Z,2075.63
2018-06-11T07:07:48.247Z,1726.88
2018-06-11T07:08:48.230Z,1738.13
2018-06-11T07:09:48.212Z,1850.63
2018-06-11T07:10:48.195Z,1867.50
2018-06-11T07:11:48.176Z,1749.38
2018-06-11T07:12:48.171Z,1681.88
2018-06-11T07:13:48.140Z,1794.38
2018-06-11T07:14:48.127Z,1800.00
2018-06-11T07:15:48.104Z,2041.88
2018-06-11T07:16:48.091Z,3015.00
2018-06-11T07:17:48.270Z,2283.75
2018-06-11T07:18:48.051Z,1884.38
2018-06-11T07:19:48.040Z,2154.38
2018-06-11T07:20:48.865Z,2131.88
2018-06-11T07:21:47.996Z,1878.75
2018-06-11T07:22:47.979Z,1715.63
2018-06-11T07:23:47.960Z,1687.50
2018-06-11T07:24:47.943Z,1749.38
2018-06-11T07:25:47.925Z,1766.25
2018-06-11T07:26:47.916Z,1614.38
2018-06-11T07:27:47.887Z,1541.25
2018-06-11T07:28:47.871Z,1513.13
2018-06-11T07:29:47.862Z,1552.50
2018-06-11T07:30:47.835Z,1771.88
2018-06-11T07:31:47.817Z,2086.88
2018-06-11T07:32:47.798Z,1485.00
2018-06-11T07:33:47.782Z,1462.50
2018-06-11T07:34:47.769Z,1451.25
2018-06-11T07:35:47.743Z,1462.50
2018-06-11T07:36:47.727Z,1473.75
2018-06-11T07:37:47.707Z,1406.25
2018-06-11T07:38:47.688Z,1378.13
2018-06-11T07:39:47.668Z,1355.63
2018-06-11T07:40:47.650Z,1338.75
2018-06-11T07:41:47.632Z,1344.38
2018-06-11T07:42:47.613Z,1389.38
2018-06-11T07:43:47.594Z,1434.38
2018-06-11T07:44:47.583Z,1462.50
2018-06-11T07:45:47.556Z,1541.25
2018-06-11T07:46:47.538Z,1490.63
2018-06-11T07:47:47.517Z,1530.00
2018-06-11T07:48:47.499Z,1552.50
2018-06-11T07:49:47.480Z,1653.75
2018-06-11T07:50:47.492Z,2570.63
2018-06-11T07:51:47.445Z,1788.75
2018-06-11T07:52:47.422Z,1603.13
2018-06-11T07:53:47.403Z,1513.13
2018-06-11T07:54:47.384Z,1496.25
2018-06-11T07:55:47.363Z,1546.88
2018-06-11T07:56:47.347Z,1642.50
2018-06-11T07:57:47.327Z,1704.38
2018-06-11T07:58:47.311Z,1473.75
2018-06-11T07:59:47.288Z,1395.00
2018-06-11T08:00:47.269Z,1440.00
2018-06-11T08:01:47.257Z,1541.25
2018-06-11T08:02:47.232Z,1591.88
2018-06-11T08:03:47.211Z,2694.38
2018-06-11T08:04:47.200Z,1575.00
2018-06-11T08:05:47.188Z,1591.88
2018-06-11T08:06:47.159Z,1636.88
2018-06-11T08:07:47.136Z,1558.13
2018-06-11T08:08:47.121Z,1603.13
2018-06-11T08:09:47.102Z,1710.00
2018-06-11T08:10:47.079Z,1923.75
2018-06-11T08:11:47.076Z,3796.88
2018-06-11T08:12:47.040Z,3470.63
2018-06-11T08:13:47.022Z,2041.88
2018-06-11T08:14:47.003Z,1901.25
2018-06-11T08:15:46.986Z,1974.38
2018-06-11T08:16:46.970Z,2761.88
2018-06-11T08:17:46.947Z,2885.63
2018-06-11T08:18:46.940Z,1957.50
2018-06-11T08:19:46.925Z,2053.13
2018-06-11T08:20:46.936Z,4241.25
2018-06-11T08:21:46.874Z,2053.13
2018-06-11T08:22:47.073Z,2379.38
2018-06-11T08:23:46.848Z,2300.63
2018-06-11T08:24:46.823Z,3633.75
2018-06-11T08:25:47.006Z,2199.38
2018-06-11T08:26:46.795Z,2030.63
2018-06-11T08:27:46.767Z,1850.63
2018-06-11T08:28:46.749Z,1653.75
2018-06-11T08:33:17.716Z,1153.13
2018-06-11T08:34:17.495Z,1153.13
2018-06-11T08:35:17.477Z,1198.13
2018-06-11T08:36:17.459Z,1265.63
2018-06-11T08:37:17.441Z,1321.88
2018-06-11T08:38:17.427Z,1350.00
2018-06-11T08:39:17.407Z,1631.25
2018-06-11T08:40:17.385Z,2919.38
2018-06-11T08:41:17.367Z,4263.75
2018-06-11T08:42:17.352Z,3965.63
2018-06-11T08:43:17.583Z,4663.13
2018-06-11T08:44:17.311Z,2801.25
2018-06-11T08:45:17.496Z,2238.75
2018-06-11T08:46:17.478Z,2463.75
2018-06-11T08:47:17.259Z,1586.25
2018-06-11T08:48:17.444Z,1451.25
2018-06-11T08:49:17.226Z,1417.50
2018-06-11T08:50:17.410Z,1462.50
2018-06-11T08:51:17.191Z,1648.13
2018-06-11T08:52:17.175Z,1878.75
2018-06-11T08:53:17.157Z,4308.75
2018-06-11T08:54:17.144Z,1839.38
2018-06-11T08:55:17.145Z,1608.75
2018-06-11T08:56:17.195Z,1501.88
2018-06-11T08:57:17.091Z,1485.00
2018-06-11T08:58:17.275Z,1479.38
2018-06-11T08:59:17.263Z,1462.50
2018-06-11T09:00:17.039Z,1473.75
2018-06-11T09:01:17.025Z,1563.75
2018-06-11T09:02:17.006Z,1653.75
2018-06-11T09:03:16.986Z,2396.25
2018-06-11T09:04:16.968Z,4252.50
2018-06-11T09:05:16.952Z,4477.50
2018-06-11T09:06:16.936Z,4280.63
2018-06-11T09:07:17.122Z,3701.25
2018-06-11T09:08:17.102Z,3369.38
2018-06-11T09:09:59.242Z,3341.25
2018-06-11T09:10:59.226Z,4291.88
2018-06-11T09:12:02.439Z,4398.75
2018-06-11T09:12:59.196Z,4156.88
2018-06-11T09:13:58.978Z,3976.88
2018-06-11T09:15:41.322Z,4230.00
2018-06-11T09:16:41.104Z,4511.25
2018-06-11T09:17:41.299Z,4370.63
2018-06-11T09:18:41.278Z,4421.25
2018-06-11T09:19:41.268Z,4629.38
2018-06-11T09:20:41.254Z,4471.88
2018-06-11T09:21:41.037Z,4635.00
2018-06-11T09:22:41.223Z,4764.38
2018-06-11T09:23:41.009Z,1974.38
2018-06-11T09:24:40.995Z,1951.88
2018-06-11T09:25:40.985Z,2013.75
2018-06-11T09:26:40.969Z,3841.88
2018-06-11T09:27:40.956Z,2283.75
2018-06-11T09:28:40.943Z,1608.75
2018-06-11T09:29:40.931Z,1620.00
2018-06-11T09:30:40.916Z,1670.63
2018-06-11T09:31:41.105Z,1833.75
2018-06-11T09:32:41.094Z,1681.88
2018-06-11T09:33:40.877Z,1620.00
2018-06-11T09:34:40.861Z,3780.00
2018-06-11T09:35:40.846Z,2610.00
2018-06-11T09:36:40.833Z,1451.25
2018-06-11T09:37:40.816Z,1417.50
2018-06-11T09:38:40.801Z,1524.38
2018-06-11T09:39:40.989Z,4410.00
2018-06-11T09:40:40.772Z,3960.00
2018-06-11T09:41:40.757Z,4561.88
2018-06-11T09:42:40.741Z,4663.13
2018-06-11T09:43:40.788Z,4736.25
2018-06-11T09:44:40.711Z,4978.13
2018-06-11T09:45:40.696Z,3785.63
2018-06-11T09:46:40.689Z,5113.13
2018-06-11T09:47:40.668Z,3796.88
2018-06-11T09:48:40.654Z,1963.13
2018-06-11T09:49:40.641Z,2508.75
2018-06-11T09:50:40.635Z,2857.50
2018-06-11T09:51:40.615Z,2188.13
2018-06-11T09:52:40.605Z,1918.13
2018-06-11T09:53:40.584Z,2874.38
2018-06-11T09:54:40.570Z,1873.13
2018-06-11T09:55:40.608Z,4719.38
2018-06-11T09:56:40.541Z,1974.38
2018-06-11T09:57:40.526Z,4995.00
2018-06-11T09:58:40.517Z,2053.13
2018-06-11T09:59:40.496Z,2148.75
2018-06-11T10:00:40.483Z,2401.88
2018-06-11T10:01:40.469Z,2351.25
2018-06-11T10:02:40.479Z,2705.63
2018-06-11T10:03:40.492Z,2075.63
2018-06-11T10:04:40.423Z,2340.00
2018-06-11T10:05:40.415Z,1974.38
2018-06-11T10:06:40.402Z,1721.25
2018-06-11T10:07:40.378Z,2255.63
2018-06-11T10:08:40.360Z,4545.00
2018-06-11T10:09:40.357Z,4590.00
2018-06-11T10:10:40.330Z,4815.00
2018-06-11T10:11:40.316Z,5107.50
2018-06-11T10:12:40.300Z,3048.75
2018-06-11T10:13:40.346Z,1878.75
2018-06-11T10:14:40.271Z,1991.25
2018-06-11T10:15:40.285Z,2053.13
2018-06-11T10:16:40.241Z,5146.88
2018-06-11T10:17:40.230Z,5079.38
2018-06-11T10:18:40.213Z,2238.75
2018-06-11T10:19:40.199Z,4927.50
2018-06-11T10:20:40.184Z,5124.38
2018-06-11T10:21:40.171Z,4882.50
2018-06-11T10:22:40.158Z,4865.63
2018-06-11T10:23:40.145Z,5152.50
2018-06-11T10:24:40.129Z,5158.13
2018-06-11T10:25:40.322Z,4938.75
2018-06-11T10:26:40.316Z,4393.13
2018-06-11T10:27:40.096Z,4123.13
2018-06-11T10:28:40.078Z,1974.38
2018-06-11T10:29:40.067Z,1890.00
2018-06-11T10:30:40.059Z,1800.00
2018-06-11T10:31:40.046Z,1856.25
2018-06-11T10:32:40.032Z,1873.13
2018-06-11T10:33:40.013Z,1974.38
2018-06-11T10:34:40.000Z,3920.63
2018-06-11T10:35:39.988Z,5034.38
2018-06-11T10:36:39.972Z,2311.88
2018-06-11T10:37:39.959Z,3256.88
2018-06-11T10:38:39.945Z,4815.00
2018-06-11T10:39:39.939Z,4950.00
2018-06-11T10:40:39.921Z,4786.88
2018-06-11T10:41:39.909Z,4618.13
2018-06-11T10:42:39.891Z,4888.13
2018-06-11T10:43:39.878Z,5062.50
2018-06-11T10:44:41.281Z,2986.88
2018-06-11T10:45:39.857Z,5169.38
2018-06-11T10:46:39.840Z,1912.50
2018-06-11T10:47:39.827Z,4635.00
2018-06-11T10:48:39.811Z,5698.13
2018-06-11T10:49:39.798Z,5518.13
2018-06-11T10:50:39.786Z,4404.38
2018-06-11T10:51:39.771Z,2688.75
2018-06-11T10:52:39.758Z,2030.63
2018-06-11T10:53:39.750Z,1968.75
2018-06-11T10:54:39.733Z,2165.63
2018-06-11T10:55:39.720Z,5743.13
2018-06-11T10:56:39.706Z,5546.25
2018-06-11T10:57:39.702Z,4629.38
2018-06-11T10:58:39.683Z,5580.00
2018-06-11T10:59:39.668Z,2722.50
2018-06-11T11:00:39.653Z,2407.50
2018-06-11T11:01:39.643Z,5838.75
2018-06-11T11:02:39.643Z,2154.38
2018-06-11T11:03:39.635Z,2311.88
2018-06-11T11:04:39.701Z,2154.38
2018-06-11T11:05:39.588Z,1951.88
2018-06-11T11:06:39.574Z,5236.88
2018-06-11T11:07:39.561Z,3121.88
2018-06-11T11:08:39.547Z,4657.50
2018-06-11T11:09:39.539Z,4854.38
2018-06-11T11:10:39.524Z,4820.63
2018-06-11T11:11:39.507Z,2671.88
2018-06-11T11:12:39.549Z,4314.38
2018-06-11T11:13:39.481Z,3600.00
2018-06-11T11:14:39.468Z,3330.00
2018-06-11T11:15:39.455Z,1794.38
2018-06-11T11:16:39.446Z,1569.38
2018-06-11T11:17:39.429Z,1558.13
2018-06-11T11:18:39.416Z,1608.75
2018-06-11T11:19:39.402Z,1698.75
2018-06-11T11:20:39.388Z,1676.25
2018-06-11T11:21:39.375Z,1710.00
2018-06-11T11:22:39.361Z,3841.88
2018-06-11T11:23:39.347Z,1659.38
2018-06-11T11:24:39.332Z,1929.38
2018-06-11T11:25:39.316Z,1563.75
2018-06-11T11:26:39.315Z,1462.50
2018-06-11T11:27:39.288Z,2868.75
2018-06-11T11:28:39.272Z,5056.88
2018-06-11T11:29:39.258Z,1749.38
2018-06-11T11:30:39.299Z,1805.63
2018-06-11T11:31:39.228Z,1670.63
2018-06-11T11:32:39.214Z,1518.75
2018-06-11T11:33:39.198Z,4966.88
2018-06-11T11:34:39.181Z,4893.75
2018-06-11T11:35:39.165Z,5051.25
2018-06-11T11:36:39.147Z,1918.13
2018-06-11T11:37:39.136Z,1687.50
2018-06-11T11:38:39.118Z,1614.38
2018-06-11T11:39:39.103Z,1490.63
2018-06-11T11:40:39.087Z,3470.63
2018-06-11T11:41:39.071Z,2846.25
2018-06-11T11:42:39.058Z,4280.63
2018-06-11T11:43:39.042Z,3076.88
2018-06-11T11:44:39.024Z,1963.13
2018-06-11T11:45:39.011Z,5411.25
2018-06-11T11:46:38.999Z,5000.63
2018-06-11T11:47:38.981Z,4876.88
2018-06-11T11:48:38.967Z,3346.88
2018-06-11T11:49:38.949Z,1839.38
2018-06-11T11:50:38.940Z,1816.88
2018-06-11T11:51:38.920Z,1980.00
2018-06-11T11:52:38.904Z,2070.00
2018-06-11T11:53:38.890Z,1653.75
2018-06-11T11:54:38.875Z,1597.50
2018-06-11T11:55:38.865Z,2030.63
2018-06-11T11:56:38.848Z,5326.88
2018-06-11T11:57:38.833Z,3740.63
2018-06-11T11:58:38.813Z,5664.38
2018-06-11T11:59:39.001Z,5928.75
2018-06-11T12:00:38.782Z,4134.38
2018-06-11T12:01:38.818Z,2148.75
2018-06-11T12:02:38.752Z,1912.50
2018-06-11T12:03:38.739Z,1743.75
2018-06-11T12:04:38.725Z,4955.63
2018-06-11T12:05:38.708Z,4950.00
2018-06-11T12:06:38.694Z,4483.13
2018-06-11T12:07:38.682Z,3982.50
2018-06-11T12:08:38.867Z,5073.75
2018-06-11T12:09:38.851Z,4905.00
2018-06-11T12:10:38.637Z,4156.88
2018-06-11T12:11:38.622Z,4561.88
2018-06-11T12:12:38.632Z,4308.75
2018-06-11T12:13:38.594Z,4449.38
2018-06-11T12:14:38.584Z,4539.38
2018-06-11T12:15:38.568Z,4629.38
2018-06-11T12:16:38.553Z,4663.13
2018-06-11T12:17:38.542Z,4663.13
2018-06-11T12:18:38.535Z,4876.88
2018-06-11T12:19:38.719Z,4815.00
2018-06-11T12:20:38.706Z,4786.88
2018-06-11T12:21:38.693Z,5011.88
2018-06-11T12:22:38.682Z,4888.13
2018-06-11T12:23:38.468Z,5130.00
2018-06-11T12:24:38.657Z,5107.50
2018-06-11T12:25:41.268Z,4888.13
2018-06-11T12:26:38.642Z,4657.50
2018-06-11T12:27:38.628Z,4494.38
2018-06-11T12:29:20.772Z,4500.00
2018-06-11T12:30:20.558Z,4466.25
2018-06-11T12:31:20.786Z,4651.88
2018-06-11T12:32:20.536Z,4758.75
2018-06-11T12:33:20.524Z,4505.63
2018-06-11T12:34:20.512Z,4606.88
2018-06-11T12:35:20.507Z,4415.63
2018-06-11T12:36:20.493Z,4966.88
2018-06-11T12:37:20.681Z,4882.50
2018-06-11T12:38:20.672Z,1923.75